sensor_id;sensor_type;location;lat;lon;timestamp;temperature;humidity
46816;DHT22;32787;53.316;8.670;2023-08-07T00:01:52;15.40;90.80
46816;DHT22;32787;53.316;8.670;2023-08-07T00:04:17;15.40;90.90
46816;DHT22;32787;53.316;8.670;2023-08-07T00:06:43;15.40;90.90
46816;DHT22;32787;53.316;8.670;2023-08-07T00:09:08;15.50;91.10
46816;DHT22;32787;53.316;8.670;2023-08-07T00:11:34;15.40;91.10
46816;DHT22;32787;53.316;8.670;2023-08-07T00:14:00;15.40;91.40
46816;DHT22;32787;53.316;8.670;2023-08-07T00:16:26;15.30;91.50
46816;DHT22;32787;53.316;8.670;2023-08-07T00:18:51;15.20;91.70
46816;DHT22;32787;53.316;8.670;2023-08-07T00:21:21;15.10;92.20
46816;DHT22;32787;53.316;8.670;2023-08-07T00:23:47;15.20;92.40
46816;DHT22;32787;53.316;8.670;2023-08-07T00:26:13;15.30;91.90
46816;DHT22;32787;53.316;8.670;2023-08-07T00:28:39;15.30;91.90
46816;DHT22;32787;53.316;8.670;2023-08-07T00:31:04;15.10;92.20
46816;DHT22;32787;53.316;8.670;2023-08-07T00:33:30;15.20;92.50
46816;DHT22;32787;53.316;8.670;2023-08-07T00:35:56;15.20;92.30
46816;DHT22;32787;53.316;8.670;2023-08-07T00:38:21;15.10;92.50
46816;DHT22;32787;53.316;8.670;2023-08-07T00:40:47;15.10;92.60
46816;DHT22;32787;53.316;8.670;2023-08-07T00:43:13;15.10;92.60
46816;DHT22;32787;53.316;8.670;2023-08-07T00:45:43;15.10;92.80
46816;DHT22;32787;53.316;8.670;2023-08-07T00:48:11;15.30;92.50
46816;DHT22;32787;53.316;8.670;2023-08-07T00:50:37;15.30;92.40
46816;DHT22;32787;53.316;8.670;2023-08-07T00:53:02;15.20;92.40
46816;DHT22;32787;53.316;8.670;2023-08-07T00:55:29;15.20;92.40
46816;DHT22;32787;53.316;8.670;2023-08-07T00:57:55;15.30;92.40
46816;DHT22;32787;53.316;8.670;2023-08-07T01:00:21;15.30;92.20
46816;DHT22;32787;53.316;8.670;2023-08-07T01:02:48;15.30;92.30
46816;DHT22;32787;53.316;8.670;2023-08-07T01:05:17;15.20;92.60
46816;DHT22;32787;53.316;8.670;2023-08-07T01:07:43;15.20;92.60
46816;DHT22;32787;53.316;8.670;2023-08-07T01:10:09;15.10;92.90
46816;DHT22;32787;53.316;8.670;2023-08-07T01:12:45;15.10;93.10
46816;DHT22;32787;53.316;8.670;2023-08-07T01:15:16;15.20;92.70
46816;DHT22;32787;53.316;8.670;2023-08-07T01:17:47;15.20;92.90
46816;DHT22;32787;53.316;8.670;2023-08-07T01:20:14;15.30;92.40
46816;DHT22;32787;53.316;8.670;2023-08-07T01:22:40;15.20;92.60
46816;DHT22;32787;53.316;8.670;2023-08-07T01:25:06;15.20;92.60
46816;DHT22;32787;53.316;8.670;2023-08-07T01:27:35;15.30;92.70
46816;DHT22;32787;53.316;8.670;2023-08-07T01:30:33;15.10;92.50
46816;DHT22;32787;53.316;8.670;2023-08-07T01:33:26;15.10;92.80
46816;DHT22;32787;53.316;8.670;2023-08-07T01:35:55;15.10;92.80
46816;DHT22;32787;53.316;8.670;2023-08-07T01:38:25;15.10;92.90
46816;DHT22;32787;53.316;8.670;2023-08-07T01:40:52;15.20;92.60
46816;DHT22;32787;53.316;8.670;2023-08-07T01:43:18;15.20;92.40
46816;DHT22;32787;53.316;8.670;2023-08-07T01:45:45;15.20;92.10
46816;DHT22;32787;53.316;8.670;2023-08-07T01:48:11;15.20;92.20
46816;DHT22;32787;53.316;8.670;2023-08-07T01:50:38;15.10;92.20
46816;DHT22;32787;53.316;8.670;2023-08-07T01:53:04;15.00;92.50
46816;DHT22;32787;53.316;8.670;2023-08-07T01:55:30;15.20;92.70
46816;DHT22;32787;53.316;8.670;2023-08-07T01:57:56;15.20;92.10
46816;DHT22;32787;53.316;8.670;2023-08-07T02:00:22;15.20;92.30
46816;DHT22;32787;53.316;8.670;2023-08-07T02:02:48;15.20;92.00
46816;DHT22;32787;53.316;8.670;2023-08-07T02:05:14;15.20;92.20
46816;DHT22;32787;53.316;8.670;2023-08-07T02:07:40;15.20;92.00
46816;DHT22;32787;53.316;8.670;2023-08-07T02:10:06;15.00;92.10
46816;DHT22;32787;53.316;8.670;2023-08-07T02:12:32;15.00;92.40
46816;DHT22;32787;53.316;8.670;2023-08-07T02:14:58;14.80;92.50
46816;DHT22;32787;53.316;8.670;2023-08-07T02:17:28;14.80;92.70
46816;DHT22;32787;53.316;8.670;2023-08-07T02:19:56;14.80;92.80
46816;DHT22;32787;53.316;8.670;2023-08-07T02:22:21;14.80;92.50
46816;DHT22;32787;53.316;8.670;2023-08-07T02:24:47;14.70;93.00
46816;DHT22;32787;53.316;8.670;2023-08-07T02:27:13;14.80;92.80
46816;DHT22;32787;53.316;8.670;2023-08-07T02:29:38;14.70;92.90
46816;DHT22;32787;53.316;8.670;2023-08-07T02:32:04;14.80;93.10
46816;DHT22;32787;53.316;8.670;2023-08-07T02:34:30;14.70;93.10
46816;DHT22;32787;53.316;8.670;2023-08-07T02:36:56;14.70;93.10
46816;DHT22;32787;53.316;8.670;2023-08-07T02:39:22;14.80;93.30
46816;DHT22;32787;53.316;8.670;2023-08-07T02:41:48;14.80;93.30
46816;DHT22;32787;53.316;8.670;2023-08-07T02:44:14;14.90;93.40
46816;DHT22;32787;53.316;8.670;2023-08-07T02:46:39;14.90;92.80
46816;DHT22;32787;53.316;8.670;2023-08-07T02:49:05;14.90;93.10
46816;DHT22;32787;53.316;8.670;2023-08-07T02:51:32;14.90;92.90
46816;DHT22;32787;53.316;8.670;2023-08-07T02:53:57;14.90;92.80
46816;DHT22;32787;53.316;8.670;2023-08-07T02:56:23;14.80;93.00
46816;DHT22;32787;53.316;8.670;2023-08-07T02:58:48;14.80;93.10
46816;DHT22;32787;53.316;8.670;2023-08-07T03:01:14;15.00;93.20
46816;DHT22;32787;53.316;8.670;2023-08-07T03:03:39;14.90;93.20
46816;DHT22;32787;53.316;8.670;2023-08-07T03:06:05;14.80;93.10
46816;DHT22;32787;53.316;8.670;2023-08-07T03:08:31;14.80;93.10
46816;DHT22;32787;53.316;8.670;2023-08-07T03:10:57;14.90;93.00
46816;DHT22;32787;53.316;8.670;2023-08-07T03:13:23;14.90;93.10
46816;DHT22;32787;53.316;8.670;2023-08-07T03:15:49;14.90;93.40
46816;DHT22;32787;53.316;8.670;2023-08-07T03:18:18;14.90;93.40
46816;DHT22;32787;53.316;8.670;2023-08-07T03:20:44;15.00;93.40
46816;DHT22;32787;53.316;8.670;2023-08-07T03:23:10;14.90;93.40
46816;DHT22;32787;53.316;8.670;2023-08-07T03:25:36;14.90;93.60
46816;DHT22;32787;53.316;8.670;2023-08-07T03:28:02;14.90;93.70
46816;DHT22;32787;53.316;8.670;2023-08-07T03:30:27;14.90;93.80
46816;DHT22;32787;53.316;8.670;2023-08-07T03:32:53;15.00;93.80
46816;DHT22;32787;53.316;8.670;2023-08-07T03:35:18;15.00;93.80
46816;DHT22;32787;53.316;8.670;2023-08-07T03:37:44;15.00;93.70
46816;DHT22;32787;53.316;8.670;2023-08-07T03:40:10;14.90;93.70
46816;DHT22;32787;53.316;8.670;2023-08-07T03:42:36;14.90;94.00
46816;DHT22;32787;53.316;8.670;2023-08-07T03:45:01;14.90;94.10
46816;DHT22;32787;53.316;8.670;2023-08-07T03:47:27;14.90;94.00
46816;DHT22;32787;53.316;8.670;2023-08-07T03:49:52;14.90;94.20
46816;DHT22;32787;53.316;8.670;2023-08-07T03:52:18;14.90;94.20
46816;DHT22;32787;53.316;8.670;2023-08-07T03:54:44;14.80;94.30
46816;DHT22;32787;53.316;8.670;2023-08-07T03:57:09;14.80;94.50
46816;DHT22;32787;53.316;8.670;2023-08-07T03:59:36;14.80;94.50
46816;DHT22;32787;53.316;8.670;2023-08-07T04:02:02;14.80;94.40
46816;DHT22;32787;53.316;8.670;2023-08-07T04:04:28;14.80;94.20
46816;DHT22;32787;53.316;8.670;2023-08-07T04:06:53;14.70;94.30
46816;DHT22;32787;53.316;8.670;2023-08-07T04:09:19;14.60;94.30
46816;DHT22;32787;53.316;8.670;2023-08-07T04:11:45;14.80;94.40
46816;DHT22;32787;53.316;8.670;2023-08-07T04:14:10;14.70;94.30
46816;DHT22;32787;53.316;8.670;2023-08-07T04:16:36;14.60;94.20
46816;DHT22;32787;53.316;8.670;2023-08-07T04:19:02;14.70;94.20
46816;DHT22;32787;53.316;8.670;2023-08-07T04:21:29;14.60;94.10
46816;DHT22;32787;53.316;8.670;2023-08-07T04:23:55;14.70;93.90
46816;DHT22;32787;53.316;8.670;2023-08-07T04:26:21;14.50;94.20
46816;DHT22;32787;53.316;8.670;2023-08-07T04:28:46;14.40;94.50
46816;DHT22;32787;53.316;8.670;2023-08-07T04:31:12;14.40;94.60
46816;DHT22;32787;53.316;8.670;2023-08-07T04:33:38;14.40;94.70
46816;DHT22;32787;53.316;8.670;2023-08-07T04:36:04;14.40;94.70
46816;DHT22;32787;53.316;8.670;2023-08-07T04:38:30;14.40;94.70
46816;DHT22;32787;53.316;8.670;2023-08-07T04:40:56;14.50;94.80
46816;DHT22;32787;53.316;8.670;2023-08-07T04:43:22;14.40;94.70
46816;DHT22;32787;53.316;8.670;2023-08-07T04:45:48;14.50;94.70
46816;DHT22;32787;53.316;8.670;2023-08-07T04:48:14;14.40;94.70
46816;DHT22;32787;53.316;8.670;2023-08-07T04:50:40;14.40;94.80
46816;DHT22;32787;53.316;8.670;2023-08-07T04:53:06;14.40;94.50
46816;DHT22;32787;53.316;8.670;2023-08-07T04:55:32;14.40;94.60
46816;DHT22;32787;53.316;8.670;2023-08-07T04:57:58;14.40;94.60
46816;DHT22;32787;53.316;8.670;2023-08-07T05:00:24;14.40;94.60
46816;DHT22;32787;53.316;8.670;2023-08-07T05:02:50;14.30;94.50
46816;DHT22;32787;53.316;8.670;2023-08-07T05:05:16;14.30;94.70
46816;DHT22;32787;53.316;8.670;2023-08-07T05:07:43;14.30;94.80
46816;DHT22;32787;53.316;8.670;2023-08-07T05:10:09;14.40;94.80
46816;DHT22;32787;53.316;8.670;2023-08-07T05:12:35;14.40;94.80
46816;DHT22;32787;53.316;8.670;2023-08-07T05:15:01;14.40;94.80
46816;DHT22;32787;53.316;8.670;2023-08-07T05:17:26;14.40;94.80
46816;DHT22;32787;53.316;8.670;2023-08-07T05:19:52;14.40;94.80
46816;DHT22;32787;53.316;8.670;2023-08-07T05:22:17;14.50;94.70
46816;DHT22;32787;53.316;8.670;2023-08-07T05:24:43;14.50;94.70
46816;DHT22;32787;53.316;8.670;2023-08-07T05:27:10;14.50;94.50
46816;DHT22;32787;53.316;8.670;2023-08-07T05:29:36;14.50;94.60
46816;DHT22;32787;53.316;8.670;2023-08-07T05:32:09;14.60;94.60
46816;DHT22;32787;53.316;8.670;2023-08-07T05:34:35;14.50;94.20
46816;DHT22;32787;53.316;8.670;2023-08-07T05:37:01;14.40;94.30
46816;DHT22;32787;53.316;8.670;2023-08-07T05:39:27;14.30;94.20
46816;DHT22;32787;53.316;8.670;2023-08-07T05:41:52;14.30;94.40
46816;DHT22;32787;53.316;8.670;2023-08-07T05:44:20;14.20;94.40
46816;DHT22;32787;53.316;8.670;2023-08-07T05:46:45;14.30;94.50
46816;DHT22;32787;53.316;8.670;2023-08-07T05:49:11;14.20;94.40
46816;DHT22;32787;53.316;8.670;2023-08-07T05:51:37;14.20;94.40
46816;DHT22;32787;53.316;8.670;2023-08-07T05:54:02;14.30;94.50
46816;DHT22;32787;53.316;8.670;2023-08-07T05:56:28;14.30;94.50
46816;DHT22;32787;53.316;8.670;2023-08-07T05:58:53;14.30;94.50
46816;DHT22;32787;53.316;8.670;2023-08-07T06:01:19;14.40;94.60
46816;DHT22;32787;53.316;8.670;2023-08-07T06:03:45;14.40;94.70
46816;DHT22;32787;53.316;8.670;2023-08-07T06:06:10;14.50;94.70
46816;DHT22;32787;53.316;8.670;2023-08-07T06:08:36;14.60;94.60
46816;DHT22;32787;53.316;8.670;2023-08-07T06:11:01;14.60;94.50
46816;DHT22;32787;53.316;8.670;2023-08-07T06:13:31;14.60;94.60
46816;DHT22;32787;53.316;8.670;2023-08-07T06:15:56;14.70;94.60
46816;DHT22;32787;53.316;8.670;2023-08-07T06:18:22;14.70;94.60
46816;DHT22;32787;53.316;8.670;2023-08-07T06:20:47;14.90;94.70
46816;DHT22;32787;53.316;8.670;2023-08-07T06:23:13;14.90;94.40
46816;DHT22;32787;53.316;8.670;2023-08-07T06:25:39;14.90;94.40
46816;DHT22;32787;53.316;8.670;2023-08-07T06:28:04;14.90;94.40
46816;DHT22;32787;53.316;8.670;2023-08-07T06:30:33;14.80;94.40
46816;DHT22;32787;53.316;8.670;2023-08-07T06:32:58;14.90;94.60
46816;DHT22;32787;53.316;8.670;2023-08-07T06:35:24;14.80;94.60
46816;DHT22;32787;53.316;8.670;2023-08-07T06:37:50;14.80;94.80
46816;DHT22;32787;53.316;8.670;2023-08-07T06:40:15;14.80;94.90
46816;DHT22;32787;53.316;8.670;2023-08-07T06:42:41;14.80;95.00
46816;DHT22;32787;53.316;8.670;2023-08-07T06:45:07;14.90;94.90
46816;DHT22;32787;53.316;8.670;2023-08-07T06:47:32;14.90;94.90
46816;DHT22;32787;53.316;8.670;2023-08-07T06:49:58;14.90;94.90
46816;DHT22;32787;53.316;8.670;2023-08-07T06:52:23;14.90;94.80
46816;DHT22;32787;53.316;8.670;2023-08-07T06:54:49;15.10;94.70
46816;DHT22;32787;53.316;8.670;2023-08-07T06:57:15;15.00;94.60
46816;DHT22;32787;53.316;8.670;2023-08-07T06:59:40;15.10;94.80
46816;DHT22;32787;53.316;8.670;2023-08-07T07:02:06;15.00;94.70
46816;DHT22;32787;53.316;8.670;2023-08-07T07:04:32;14.90;94.70
46816;DHT22;32787;53.316;8.670;2023-08-07T07:06:58;14.80;94.50
46816;DHT22;32787;53.316;8.670;2023-08-07T07:09:24;14.90;94.60
46816;DHT22;32787;53.316;8.670;2023-08-07T07:11:50;15.10;94.40
46816;DHT22;32787;53.316;8.670;2023-08-07T07:14:15;15.00;94.20
46816;DHT22;32787;53.316;8.670;2023-08-07T07:16:41;15.00;93.80
46816;DHT22;32787;53.316;8.670;2023-08-07T07:19:07;15.10;93.70
46816;DHT22;32787;53.316;8.670;2023-08-07T07:21:34;15.30;93.60
46816;DHT22;32787;53.316;8.670;2023-08-07T07:24:02;15.20;92.90
46816;DHT22;32787;53.316;8.670;2023-08-07T07:26:27;15.30;92.60
46816;DHT22;32787;53.316;8.670;2023-08-07T07:28:53;15.30;92.80
46816;DHT22;32787;53.316;8.670;2023-08-07T07:31:19;15.30;92.20
46816;DHT22;32787;53.316;8.670;2023-08-07T07:33:44;15.20;92.20
46816;DHT22;32787;53.316;8.670;2023-08-07T07:36:17;15.20;91.50
46816;DHT22;32787;53.316;8.670;2023-08-07T07:38:45;15.30;90.70
46816;DHT22;32787;53.316;8.670;2023-08-07T07:41:16;15.10;90.50
46816;DHT22;32787;53.316;8.670;2023-08-07T07:43:42;15.20;90.60
46816;DHT22;32787;53.316;8.670;2023-08-07T07:46:08;15.20;90.10
46816;DHT22;32787;53.316;8.670;2023-08-07T07:48:34;15.40;90.00
46816;DHT22;32787;53.316;8.670;2023-08-07T07:51:03;15.40;89.20
46816;DHT22;32787;53.316;8.670;2023-08-07T07:53:29;15.30;89.20
46816;DHT22;32787;53.316;8.670;2023-08-07T07:55:56;15.30;90.10
46816;DHT22;32787;53.316;8.670;2023-08-07T07:58:22;15.50;89.50
46816;DHT22;32787;53.316;8.670;2023-08-07T08:00:47;15.50;87.90
46816;DHT22;32787;53.316;8.670;2023-08-07T08:03:13;15.60;89.10
46816;DHT22;32787;53.316;8.670;2023-08-07T08:05:39;15.50;88.70
46816;DHT22;32787;53.316;8.670;2023-08-07T08:08:06;15.50;87.40
46816;DHT22;32787;53.316;8.670;2023-08-07T08:10:33;15.50;87.50
46816;DHT22;32787;53.316;8.670;2023-08-07T08:12:59;15.60;85.30
46816;DHT22;32787;53.316;8.670;2023-08-07T08:15:25;15.80;85.80
46816;DHT22;32787;53.316;8.670;2023-08-07T08:17:51;15.80;84.00
46816;DHT22;32787;53.316;8.670;2023-08-07T08:20:17;15.80;84.80
46816;DHT22;32787;53.316;8.670;2023-08-07T08:22:45;15.70;85.00
46816;DHT22;32787;53.316;8.670;2023-08-07T08:25:12;15.70;84.80
46816;DHT22;32787;53.316;8.670;2023-08-07T08:27:38;15.60;84.40
46816;DHT22;32787;53.316;8.670;2023-08-07T08:30:04;15.50;84.90
46816;DHT22;32787;53.316;8.670;2023-08-07T08:32:30;15.30;86.00
46816;DHT22;32787;53.316;8.670;2023-08-07T08:34:56;15.20;86.80
46816;DHT22;32787;53.316;8.670;2023-08-07T08:37:21;15.10;88.00
46816;DHT22;32787;53.316;8.670;2023-08-07T08:39:47;15.00;87.60
46816;DHT22;32787;53.316;8.670;2023-08-07T08:42:14;15.20;87.30
46816;DHT22;32787;53.316;8.670;2023-08-07T08:44:40;15.30;86.80
46816;DHT22;32787;53.316;8.670;2023-08-07T08:47:07;15.30;86.30
46816;DHT22;32787;53.316;8.670;2023-08-07T08:49:37;15.40;86.70
46816;DHT22;32787;53.316;8.670;2023-08-07T08:52:07;15.70;86.40
46816;DHT22;32787;53.316;8.670;2023-08-07T08:54:33;15.60;86.40
46816;DHT22;32787;53.316;8.670;2023-08-07T08:56:59;15.60;85.30
46816;DHT22;32787;53.316;8.670;2023-08-07T08:59:25;15.50;86.10
46816;DHT22;32787;53.316;8.670;2023-08-07T09:01:51;15.30;85.40
46816;DHT22;32787;53.316;8.670;2023-08-07T09:04:18;15.20;84.90
46816;DHT22;32787;53.316;8.670;2023-08-07T09:06:44;15.10;84.50
46816;DHT22;32787;53.316;8.670;2023-08-07T09:09:12;15.20;84.50
46816;DHT22;32787;53.316;8.670;2023-08-07T09:11:42;15.20;83.60
46816;DHT22;32787;53.316;8.670;2023-08-07T09:14:12;15.20;84.90
46816;DHT22;32787;53.316;8.670;2023-08-07T09:16:40;15.40;85.90
46816;DHT22;32787;53.316;8.670;2023-08-07T09:19:06;15.80;82.80
46816;DHT22;32787;53.316;8.670;2023-08-07T09:21:32;16.00;81.50
46816;DHT22;32787;53.316;8.670;2023-08-07T09:23:58;16.00;79.50
46816;DHT22;32787;53.316;8.670;2023-08-07T09:26:24;16.10;80.10
46816;DHT22;32787;53.316;8.670;2023-08-07T09:28:53;16.40;74.50
46816;DHT22;32787;53.316;8.670;2023-08-07T09:31:20;16.40;71.10
46816;DHT22;32787;53.316;8.670;2023-08-07T09:33:47;16.40;70.30
46816;DHT22;32787;53.316;8.670;2023-08-07T09:36:14;16.40;74.50
46816;DHT22;32787;53.316;8.670;2023-08-07T09:38:39;16.50;76.10
46816;DHT22;32787;53.316;8.670;2023-08-07T09:41:05;16.50;70.80
46816;DHT22;32787;53.316;8.670;2023-08-07T09:43:37;16.50;73.30
46816;DHT22;32787;53.316;8.670;2023-08-07T09:46:06;16.50;70.10
46816;DHT22;32787;53.316;8.670;2023-08-07T09:48:38;16.60;68.70
46816;DHT22;32787;53.316;8.670;2023-08-07T09:51:04;16.60;70.20
46816;DHT22;32787;53.316;8.670;2023-08-07T09:53:30;16.80;70.40
46816;DHT22;32787;53.316;8.670;2023-08-07T09:55:56;16.80;71.70
46816;DHT22;32787;53.316;8.670;2023-08-07T09:58:23;16.70;73.10
46816;DHT22;32787;53.316;8.670;2023-08-07T10:00:49;16.50;72.90
46816;DHT22;32787;53.316;8.670;2023-08-07T10:03:15;16.50;73.60
46816;DHT22;32787;53.316;8.670;2023-08-07T10:05:43;16.50;74.50
46816;DHT22;32787;53.316;8.670;2023-08-07T10:08:10;16.60;74.70
46816;DHT22;32787;53.316;8.670;2023-08-07T10:10:37;16.90;70.30
46816;DHT22;32787;53.316;8.670;2023-08-07T10:13:03;17.20;68.40
46816;DHT22;32787;53.316;8.670;2023-08-07T10:15:31;17.30;69.40
46816;DHT22;32787;53.316;8.670;2023-08-07T10:17:57;17.00;68.40
46816;DHT22;32787;53.316;8.670;2023-08-07T10:20:27;16.70;69.80
46816;DHT22;32787;53.316;8.670;2023-08-07T10:22:53;16.50;73.60
46816;DHT22;32787;53.316;8.670;2023-08-07T10:25:21;16.40;72.70
46816;DHT22;32787;53.316;8.670;2023-08-07T10:27:49;16.40;73.40
46816;DHT22;32787;53.316;8.670;2023-08-07T10:30:18;16.40;74.70
46816;DHT22;32787;53.316;8.670;2023-08-07T10:32:44;16.40;76.20
46816;DHT22;32787;53.316;8.670;2023-08-07T10:35:26;16.20;76.90
46816;DHT22;32787;53.316;8.670;2023-08-07T10:37:54;16.10;78.70
46816;DHT22;32787;53.316;8.670;2023-08-07T10:40:20;15.80;80.20
46816;DHT22;32787;53.316;8.670;2023-08-07T10:45:22;15.70;82.00
46816;DHT22;32787;53.316;8.670;2023-08-07T10:48:07;15.80;81.80
46816;DHT22;32787;53.316;8.670;2023-08-07T10:50:35;15.90;82.10
46816;DHT22;32787;53.316;8.670;2023-08-07T10:53:04;16.00;81.50
46816;DHT22;32787;53.316;8.670;2023-08-07T10:55:46;16.10;80.10
46816;DHT22;32787;53.316;8.670;2023-08-07T10:58:31;16.30;80.00
46816;DHT22;32787;53.316;8.670;2023-08-07T11:04:05;16.70;79.20
46816;DHT22;32787;53.316;8.670;2023-08-07T11:06:33;16.80;77.40
46816;DHT22;32787;53.316;8.670;2023-08-07T11:09:00;17.00;76.60
46816;DHT22;32787;53.316;8.670;2023-08-07T11:11:36;17.00;74.30
46816;DHT22;32787;53.316;8.670;2023-08-07T11:14:09;17.30;75.20
46816;DHT22;32787;53.316;8.670;2023-08-07T11:16:35;17.40;75.80
46816;DHT22;32787;53.316;8.670;2023-08-07T11:19:01;17.60;74.10
46816;DHT22;32787;53.316;8.670;2023-08-07T11:21:27;17.70;75.40
46816;DHT22;32787;53.316;8.670;2023-08-07T11:23:52;17.70;74.10
46816;DHT22;32787;53.316;8.670;2023-08-07T11:26:18;17.50;74.60
46816;DHT22;32787;53.316;8.670;2023-08-07T11:28:47;17.20;74.30
46816;DHT22;32787;53.316;8.670;2023-08-07T11:31:13;17.30;69.00
46816;DHT22;32787;53.316;8.670;2023-08-07T11:33:39;17.80;68.80
46816;DHT22;32787;53.316;8.670;2023-08-07T11:36:15;17.80;64.00
46816;DHT22;32787;53.316;8.670;2023-08-07T11:38:43;17.80;65.90
46816;DHT22;32787;53.316;8.670;2023-08-07T11:41:09;18.10;65.10
46816;DHT22;32787;53.316;8.670;2023-08-07T11:43:36;18.40;67.00
46816;DHT22;32787;53.316;8.670;2023-08-07T11:46:07;18.60;62.00
46816;DHT22;32787;53.316;8.670;2023-08-07T11:48:34;19.10;62.30
46816;DHT22;32787;53.316;8.670;2023-08-07T11:51:01;19.30;58.30
46816;DHT22;32787;53.316;8.670;2023-08-07T11:53:32;19.10;58.20
46816;DHT22;32787;53.316;8.670;2023-08-07T11:55:59;19.20;56.10
46816;DHT22;32787;53.316;8.670;2023-08-07T11:58:26;18.80;57.20
46816;DHT22;32787;53.316;8.670;2023-08-07T12:00:53;18.60;58.50
46816;DHT22;32787;53.316;8.670;2023-08-07T12:03:29;18.40;60.30
46816;DHT22;32787;53.316;8.670;2023-08-07T12:05:58;18.20;59.80
46816;DHT22;32787;53.316;8.670;2023-08-07T12:08:25;18.00;64.80
46816;DHT22;32787;53.316;8.670;2023-08-07T12:10:56;17.80;65.70
46816;DHT22;32787;53.316;8.670;2023-08-07T12:13:24;17.60;64.70
46816;DHT22;32787;53.316;8.670;2023-08-07T12:15:54;17.80;66.20
46816;DHT22;32787;53.316;8.670;2023-08-07T12:18:20;18.00;66.90
46816;DHT22;32787;53.316;8.670;2023-08-07T12:20:46;17.90;66.20
46816;DHT22;32787;53.316;8.670;2023-08-07T12:23:15;17.70;67.30
46816;DHT22;32787;53.316;8.670;2023-08-07T12:25:44;17.40;69.70
46816;DHT22;32787;53.316;8.670;2023-08-07T12:28:10;17.00;71.90
46816;DHT22;32787;53.316;8.670;2023-08-07T12:30:40;16.50;73.80
46816;DHT22;32787;53.316;8.670;2023-08-07T12:33:05;16.00;76.40
46816;DHT22;32787;53.316;8.670;2023-08-07T12:35:33;15.70;77.20
46816;DHT22;32787;53.316;8.670;2023-08-07T12:38:00;15.60;79.10
46816;DHT22;32787;53.316;8.670;2023-08-07T12:40:27;15.30;79.20
46816;DHT22;32787;53.316;8.670;2023-08-07T12:42:52;15.40;80.90
46816;DHT22;32787;53.316;8.670;2023-08-07T12:45:18;15.50;79.90
46816;DHT22;32787;53.316;8.670;2023-08-07T12:47:48;16.10;81.20
46816;DHT22;32787;53.316;8.670;2023-08-07T12:50:13;16.80;78.30
46816;DHT22;32787;53.316;8.670;2023-08-07T12:52:39;16.80;77.80
46816;DHT22;32787;53.316;8.670;2023-08-07T12:55:05;16.70;77.20
46816;DHT22;32787;53.316;8.670;2023-08-07T12:57:31;16.80;77.50
46816;DHT22;32787;53.316;8.670;2023-08-07T12:59:57;16.90;75.60
46816;DHT22;32787;53.316;8.670;2023-08-07T13:02:23;17.70;68.80
46816;DHT22;32787;53.316;8.670;2023-08-07T13:04:48;18.00;66.70
46816;DHT22;32787;53.316;8.670;2023-08-07T13:07:14;18.10;68.00
46816;DHT22;32787;53.316;8.670;2023-08-07T13:09:40;18.00;69.30
46816;DHT22;32787;53.316;8.670;2023-08-07T13:12:06;18.10;69.70
46816;DHT22;32787;53.316;8.670;2023-08-07T13:14:31;19.00;68.00
46816;DHT22;32787;53.316;8.670;2023-08-07T13:16:57;20.30;61.30
46816;DHT22;32787;53.316;8.670;2023-08-07T13:19:23;21.20;60.40
46816;DHT22;32787;53.316;8.670;2023-08-07T13:21:48;20.30;60.00
46816;DHT22;32787;53.316;8.670;2023-08-07T13:24:14;19.00;62.30
46816;DHT22;32787;53.316;8.670;2023-08-07T13:26:39;18.30;64.60
46816;DHT22;32787;53.316;8.670;2023-08-07T13:29:13;17.70;66.60
46816;DHT22;32787;53.316;8.670;2023-08-07T13:31:39;17.50;66.20
46816;DHT22;32787;53.316;8.670;2023-08-07T13:34:07;17.40;65.60
46816;DHT22;32787;53.316;8.670;2023-08-07T13:36:35;17.30;64.50
46816;DHT22;32787;53.316;8.670;2023-08-07T13:39:01;17.20;65.50
46816;DHT22;32787;53.316;8.670;2023-08-07T13:41:27;17.30;65.70
46816;DHT22;32787;53.316;8.670;2023-08-07T13:43:53;17.30;66.10
46816;DHT22;32787;53.316;8.670;2023-08-07T13:46:18;17.30;66.60
46816;DHT22;32787;53.316;8.670;2023-08-07T13:48:44;17.30;66.00
46816;DHT22;32787;53.316;8.670;2023-08-07T13:51:10;17.60;65.80
46816;DHT22;32787;53.316;8.670;2023-08-07T13:53:37;18.80;64.00
46816;DHT22;32787;53.316;8.670;2023-08-07T13:56:02;20.00;59.80
46816;DHT22;32787;53.316;8.670;2023-08-07T13:58:28;19.30;60.30
46816;DHT22;32787;53.316;8.670;2023-08-07T14:00:55;18.60;61.90
46816;DHT22;32787;53.316;8.670;2023-08-07T14:03:21;18.10;64.30
46816;DHT22;32787;53.316;8.670;2023-08-07T14:05:47;18.50;62.90
46816;DHT22;32787;53.316;8.670;2023-08-07T14:08:13;18.60;65.80
46816;DHT22;32787;53.316;8.670;2023-08-07T14:10:39;18.30;64.70
46816;DHT22;32787;53.316;8.670;2023-08-07T14:13:06;17.80;67.50
46816;DHT22;32787;53.316;8.670;2023-08-07T14:15:32;17.30;70.10
46816;DHT22;32787;53.316;8.670;2023-08-07T14:17:58;16.80;71.20
46816;DHT22;32787;53.316;8.670;2023-08-07T14:20:23;16.90;72.30
46816;DHT22;32787;53.316;8.670;2023-08-07T14:22:50;17.90;70.00
46816;DHT22;32787;53.316;8.670;2023-08-07T14:25:16;18.90;67.00
46816;DHT22;32787;53.316;8.670;2023-08-07T14:27:42;19.30;66.00
46816;DHT22;32787;53.316;8.670;2023-08-07T14:30:07;19.30;66.80
46816;DHT22;32787;53.316;8.670;2023-08-07T14:32:33;20.30;65.60
46816;DHT22;32787;53.316;8.670;2023-08-07T14:34:59;21.80;58.90
46816;DHT22;32787;53.316;8.670;2023-08-07T14:37:24;22.30;56.10
46816;DHT22;32787;53.316;8.670;2023-08-07T14:39:50;22.20;51.30
46816;DHT22;32787;53.316;8.670;2023-08-07T14:42:16;22.50;54.70
46816;DHT22;32787;53.316;8.670;2023-08-07T14:44:42;22.30;51.30
46816;DHT22;32787;53.316;8.670;2023-08-07T14:47:07;22.90;53.30
46816;DHT22;32787;53.316;8.670;2023-08-07T14:49:33;23.00;51.10
46816;DHT22;32787;53.316;8.670;2023-08-07T14:51:58;21.40;54.40
46816;DHT22;32787;53.316;8.670;2023-08-07T14:54:24;19.80;59.50
46816;DHT22;32787;53.316;8.670;2023-08-07T14:56:50;19.10;62.90
46816;DHT22;32787;53.316;8.670;2023-08-07T14:59:15;18.50;63.80
46816;DHT22;32787;53.316;8.670;2023-08-07T15:01:41;18.20;66.80
46816;DHT22;32787;53.316;8.670;2023-08-07T15:04:06;18.50;68.20
46816;DHT22;32787;53.316;8.670;2023-08-07T15:06:32;19.10;63.00
46816;DHT22;32787;53.316;8.670;2023-08-07T15:08:58;18.30;65.30
46816;DHT22;32787;53.316;8.670;2023-08-07T15:11:24;18.10;67.20
46816;DHT22;32787;53.316;8.670;2023-08-07T15:13:50;17.70;68.40
46816;DHT22;32787;53.316;8.670;2023-08-07T15:16:15;17.70;70.10
46816;DHT22;32787;53.316;8.670;2023-08-07T15:18:41;17.50;69.80
46816;DHT22;32787;53.316;8.670;2023-08-07T15:21:07;17.50;69.90
46816;DHT22;32787;53.316;8.670;2023-08-07T15:23:32;17.90;71.50
46816;DHT22;32787;53.316;8.670;2023-08-07T15:25:58;18.20;68.70
46816;DHT22;32787;53.316;8.670;2023-08-07T15:28:25;18.80;65.50
46816;DHT22;32787;53.316;8.670;2023-08-07T15:30:50;19.90;61.40
46816;DHT22;32787;53.316;8.670;2023-08-07T15:33:17;20.40;58.40